Apiliotis — SYVY — position and weather

sailwx.info

Track history (hours):
 
Tides and Currents Weather Stations Pressure Air Temp Water Temp Dewpoint Dewpoint Depression Visibility Wind Speed Wind Dir Waves Ship Positions

Apiliotis

Last reported at 2016-Jul-29 13:25 UTC. Time now 2016-Jul-30 07:21 UTC.
Position N 39°31' E 024°04'.

Length 79 m; draft 4 m.

Type: Ship. MMSI: 240438000.

Date/timePositionNaut miles runAvg speedWind from/ knotsBaromVisibWave heightAir tempDewpointWater temp
2016-Jul-29 13:25N 39°31' E 024°04'3511.9
2016-Jul-29 10:30N 39°46' E 024°44'1212.2
2016-Jul-29 09:30N 39°51' E 024°59'4 0.7
2016-Jul-29 04:09N 39°52' E 025°03'  
2016-Jul-25 16:09N 36°59' E 025°21'610.9
2016-Jul-25 15:34N 37°05' E 025°18'9 1.1
2016-Jul-25 07:16N 37°07' E 025°08'811.1
2016-Jul-25 06:34N 37°10' E 025°17'6 5.7
2016-Jul-25 05:34N 37°06' E 025°22'1 0.5
2016-Jul-25 04:33N 37°06' E 025°22'0 0.0
2016-Jul-25 03:33N 37°06' E 025°22'0 0.0
2016-Jul-25 02:33N 37°06' E 025°22'5 4.7
2016-Jul-25 01:34N 37°10' E 025°19'1010.4
2016-Jul-25 00:33N 37°20' E 025°13'1110.5
2016-Jul-24 23:33N 37°30' E 025°10'3 2.6
2016-Jul-24 22:33N 37°32' E 025°09'0 0.0
2016-Jul-24 21:33N 37°32' E 025°09'0 0.0
2016-Jul-24 20:33N 37°32' E 025°09'0 0.0
2016-Jul-24 19:33N 37°32' E 025°09'0 0.0
2016-Jul-24 18:16N 37°32' E 025°09'0 0.0
2016-Jul-24 17:33N 37°32' E 025°09'0 0.0
2016-Jul-24 16:33N 37°32' E 025°09'0 0.0
2016-Jul-24 15:33N 37°32' E 025°09'0 0.0
2016-Jul-24 14:33N 37°32' E 025°09'0 0.0
2016-Jul-24 13:33N 37°32' E 025°09'0 0.0
2016-Jul-24 12:33N 37°32' E 025°09'0 0.0
2016-Jul-24 11:33N 37°32' E 025°09'0 0.0
2016-Jul-24 10:33N 37°32' E 025°09'1 0.9
2016-Jul-24 09:33N 37°33' E 025°08'0 0.0
2016-Jul-24 08:34N 37°33' E 025°08'1 0.6
2016-Jul-24 07:34N 37°32' E 025°09'9 9.0
2016-Jul-24 06:33N 37°28' E 025°19'1 0.7
2016-Jul-24 05:33N 37°28' E 025°19'0 0.0
2016-Jul-24 04:33N 37°28' E 025°19'0 0.0
2016-Jul-24 03:33N 37°28' E 025°19'0 0.0
2016-Jul-24 02:33N 37°28' E 025°19'0 0.1
2016-Jul-24 01:34N 37°28' E 025°20'9 9.4
2016-Jul-24 00:33N 37°26' E 025°08'1010.0
2016-Jul-23 23:33N 37°20' E 024°58'  
2016-Jul-21 00:10N 36°59' E 025°20'711.0
2016-Jul-20 23:34N 37°06' E 025°18'6 0.3
2016-Jul-20 02:34N 37°10' E 025°14'8 7.6
2016-Jul-20 01:34N 37°06' E 025°22'0 0.0
2016-Jul-20 00:33N 37°06' E 025°22'0 0.0
2016-Jul-19 23:33N 37°06' E 025°22'0 0.0
2016-Jul-19 22:33N 37°06' E 025°22'1 0.6
2016-Jul-19 21:33N 37°06' E 025°22'1 1.5
2016-Jul-19 20:34N 37°07' E 025°21'1111.5
2016-Jul-19 19:34N 37°17' E 025°13'  
Track history (hours):
 
Tides and Currents Weather Stations Pressure Air Temp Water Temp Dewpoint Dewpoint Depression Visibility Wind Speed Wind Dir Waves Ship Positions

Apiliotis

Last reported at 2016-Jul-29 13:25 UTC. Time now 2016-Jul-30 07:21 UTC.
Position N 39°31' E 024°04'.

Length 79 m; draft 4 m.

Type: Ship. MMSI: 240438000.

Date/timePositionNaut miles runAvg speedWind from/ knotsBaromVisibWave heightAir tempDewpointWater temp
2016-Jul-29 13:25N 39°31' E 024°04'3511.9
2016-Jul-29 10:30N 39°46' E 024°44'1212.2
2016-Jul-29 09:30N 39°51' E 024°59'4 0.7
2016-Jul-29 04:09N 39°52' E 025°03'  
2016-Jul-25 16:09N 36°59' E 025°21'610.9
2016-Jul-25 15:34N 37°05' E 025°18'9 1.1
2016-Jul-25 07:16N 37°07' E 025°08'811.1
2016-Jul-25 06:34N 37°10' E 025°17'6 5.7
2016-Jul-25 05:34N 37°06' E 025°22'1 0.5
2016-Jul-25 04:33N 37°06' E 025°22'0 0.0
2016-Jul-25 03:33N 37°06' E 025°22'0 0.0
2016-Jul-25 02:33N 37°06' E 025°22'5 4.7
2016-Jul-25 01:34N 37°10' E 025°19'1010.4
2016-Jul-25 00:33N 37°20' E 025°13'1110.5
2016-Jul-24 23:33N 37°30' E 025°10'3 2.6
2016-Jul-24 22:33N 37°32' E 025°09'0 0.0
2016-Jul-24 21:33N 37°32' E 025°09'0 0.0
2016-Jul-24 20:33N 37°32' E 025°09'0 0.0
2016-Jul-24 19:33N 37°32' E 025°09'0 0.0
2016-Jul-24 18:16N 37°32' E 025°09'0 0.0
2016-Jul-24 17:33N 37°32' E 025°09'0 0.0
2016-Jul-24 16:33N 37°32' E 025°09'0 0.0
2016-Jul-24 15:33N 37°32' E 025°09'0 0.0
2016-Jul-24 14:33N 37°32' E 025°09'0 0.0
2016-Jul-24 13:33N 37°32' E 025°09'0 0.0
2016-Jul-24 12:33N 37°32' E 025°09'0 0.0
2016-Jul-24 11:33N 37°32' E 025°09'0 0.0
2016-Jul-24 10:33N 37°32' E 025°09'1 0.9
2016-Jul-24 09:33N 37°33' E 025°08'0 0.0
2016-Jul-24 08:34N 37°33' E 025°08'1 0.6
2016-Jul-24 07:34N 37°32' E 025°09'9 9.0
2016-Jul-24 06:33N 37°28' E 025°19'1 0.7
2016-Jul-24 05:33N 37°28' E 025°19'0 0.0
2016-Jul-24 04:33N 37°28' E 025°19'0 0.0
2016-Jul-24 03:33N 37°28' E 025°19'0 0.0
2016-Jul-24 02:33N 37°28' E 025°19'0 0.1
2016-Jul-24 01:34N 37°28' E 025°20'9 9.4
2016-Jul-24 00:33N 37°26' E 025°08'1010.0
2016-Jul-23 23:33N 37°20' E 024°58'  
2016-Jul-21 00:10N 36°59' E 025°20'711.0
2016-Jul-20 23:34N 37°06' E 025°18'6 0.3
2016-Jul-20 02:34N 37°10' E 025°14'8 7.6
2016-Jul-20 01:34N 37°06' E 025°22'0 0.0
2016-Jul-20 00:33N 37°06' E 025°22'0 0.0
2016-Jul-19 23:33N 37°06' E 025°22'0 0.0
2016-Jul-19 22:33N 37°06' E 025°22'1 0.6
2016-Jul-19 21:33N 37°06' E 025°22'1 1.5
2016-Jul-19 20:34N 37°07' E 025°21'1111.5
2016-Jul-19 19:34N 37°17' E 025°13'  

Dump ship's entire track history